sensor_id;sensor_type;location;lat;lon;timestamp;temperature;humidity
17565;DHT22;62994;52.126;5.596;2023-02-03T00:00:05;9.80;99.90
17565;DHT22;62994;52.126;5.596;2023-02-03T00:02:32;9.70;99.90
17565;DHT22;62994;52.126;5.596;2023-02-03T00:04:59;9.70;99.90
17565;DHT22;62994;52.126;5.596;2023-02-03T00:07:26;9.70;99.90
17565;DHT22;62994;52.126;5.596;2023-02-03T00:09:56;9.70;99.90
17565;DHT22;62994;52.126;5.596;2023-02-03T00:12:23;9.70;99.90
17565;DHT22;62994;52.126;5.596;2023-02-03T00:14:52;9.70;99.90
17565;DHT22;62994;52.126;5.596;2023-02-03T00:17:19;9.70;99.90
17565;DHT22;62994;52.126;5.596;2023-02-03T00:19:46;9.70;99.90
17565;DHT22;62994;52.126;5.596;2023-02-03T00:22:12;9.70;99.90
17565;DHT22;62994;52.126;5.596;2023-02-03T00:24:39;9.70;99.90
17565;DHT22;62994;52.126;5.596;2023-02-03T00:27:06;9.70;99.90
17565;DHT22;62994;52.126;5.596;2023-02-03T00:29:35;9.70;99.90
17565;DHT22;62994;52.126;5.596;2023-02-03T00:32:04;9.70;99.90
17565;DHT22;62994;52.126;5.596;2023-02-03T00:34:31;9.70;99.90
17565;DHT22;62994;52.126;5.596;2023-02-03T00:37:00;9.70;99.90
17565;DHT22;62994;52.126;5.596;2023-02-03T00:39:27;9.70;99.90
17565;DHT22;62994;52.126;5.596;2023-02-03T00:42:03;9.70;99.90
17565;DHT22;62994;52.126;5.596;2023-02-03T00:44:30;9.70;99.90
17565;DHT22;62994;52.126;5.596;2023-02-03T00:46:57;9.70;99.90
17565;DHT22;62994;52.126;5.596;2023-02-03T00:49:26;9.70;99.90
17565;DHT22;62994;52.126;5.596;2023-02-03T00:51:52;9.70;99.90
17565;DHT22;62994;52.126;5.596;2023-02-03T00:54:19;9.70;99.90
17565;DHT22;62994;52.126;5.596;2023-02-03T00:56:53;9.70;99.90
17565;DHT22;62994;52.126;5.596;2023-02-03T00:59:20;9.70;99.90
17565;DHT22;62994;52.126;5.596;2023-02-03T01:01:51;9.70;99.90
17565;DHT22;62994;52.126;5.596;2023-02-03T01:04:18;9.70;99.90
17565;DHT22;62994;52.126;5.596;2023-02-03T01:06:51;9.70;99.90
17565;DHT22;62994;52.126;5.596;2023-02-03T01:09:20;9.70;99.90
17565;DHT22;62994;52.126;5.596;2023-02-03T01:11:49;9.70;99.90
17565;DHT22;62994;52.126;5.596;2023-02-03T01:14:16;9.70;99.90
17565;DHT22;62994;52.126;5.596;2023-02-03T01:16:43;9.70;99.90
17565;DHT22;62994;52.126;5.596;2023-02-03T01:19:12;9.70;99.90
17565;DHT22;62994;52.126;5.596;2023-02-03T01:21:41;9.80;99.90
17565;DHT22;62994;52.126;5.596;2023-02-03T01:24:14;9.80;99.90
17565;DHT22;62994;52.126;5.596;2023-02-03T01:26:43;9.80;99.90
17565;DHT22;62994;52.126;5.596;2023-02-03T01:29:10;9.80;99.90
17565;DHT22;62994;52.126;5.596;2023-02-03T01:31:39;9.80;99.90
17565;DHT22;62994;52.126;5.596;2023-02-03T01:34:10;9.80;99.90
17565;DHT22;62994;52.126;5.596;2023-02-03T01:36:38;9.80;99.90
17565;DHT22;62994;52.126;5.596;2023-02-03T01:39:05;9.70;99.90
17565;DHT22;62994;52.126;5.596;2023-02-03T01:41:36;9.80;99.90
17565;DHT22;62994;52.126;5.596;2023-02-03T01:47:09;9.80;99.90
17565;DHT22;62994;52.126;5.596;2023-02-03T01:49:38;9.70;99.90
17565;DHT22;62994;52.126;5.596;2023-02-03T01:52:06;9.70;99.90
17565;DHT22;62994;52.126;5.596;2023-02-03T01:54:38;9.70;99.90
17565;DHT22;62994;52.126;5.596;2023-02-03T01:57:14;9.70;99.90
17565;DHT22;62994;52.126;5.596;2023-02-03T01:59:42;9.70;99.90
17565;DHT22;62994;52.126;5.596;2023-02-03T02:02:10;9.70;99.90
17565;DHT22;62994;52.126;5.596;2023-02-03T02:04:45;9.80;99.90
17565;DHT22;62994;52.126;5.596;2023-02-03T02:07:15;9.70;99.90
17565;DHT22;62994;52.126;5.596;2023-02-03T02:09:43;9.70;99.90
17565;DHT22;62994;52.126;5.596;2023-02-03T02:12:12;9.80;99.90
17565;DHT22;62994;52.126;5.596;2023-02-03T02:14:40;9.70;99.90
17565;DHT22;62994;52.126;5.596;2023-02-03T02:17:14;9.70;99.90
17565;DHT22;62994;52.126;5.596;2023-02-03T02:23:05;9.70;99.90
17565;DHT22;62994;52.126;5.596;2023-02-03T02:25:52;9.70;99.90
17565;DHT22;62994;52.126;5.596;2023-02-03T02:28:49;9.70;99.90
17565;DHT22;62994;52.126;5.596;2023-02-03T02:31:50;9.70;99.90
17565;DHT22;62994;52.126;5.596;2023-02-03T02:34:24;9.70;99.90
17565;DHT22;62994;52.126;5.596;2023-02-03T02:37:01;9.70;99.90
17565;DHT22;62994;52.126;5.596;2023-02-03T02:39:37;9.70;99.90
17565;DHT22;62994;52.126;5.596;2023-02-03T02:42:08;9.70;99.90
17565;DHT22;62994;52.126;5.596;2023-02-03T02:44:40;9.70;99.90
17565;DHT22;62994;52.126;5.596;2023-02-03T02:47:15;9.70;99.90
17565;DHT22;62994;52.126;5.596;2023-02-03T02:49:47;9.70;99.90
17565;DHT22;62994;52.126;5.596;2023-02-03T02:52:18;9.80;99.90
17565;DHT22;62994;52.126;5.596;2023-02-03T02:54:50;9.80;99.90
17565;DHT22;62994;52.126;5.596;2023-02-03T02:57:19;9.80;99.90
17565;DHT22;62994;52.126;5.596;2023-02-03T02:59:47;9.80;99.90
17565;DHT22;62994;52.126;5.596;2023-02-03T03:02:15;9.80;99.90
17565;DHT22;62994;52.126;5.596;2023-02-03T03:04:45;9.80;99.90
17565;DHT22;62994;52.126;5.596;2023-02-03T03:07:16;9.80;99.90
17565;DHT22;62994;52.126;5.596;2023-02-03T03:09:47;9.80;99.90
17565;DHT22;62994;52.126;5.596;2023-02-03T03:12:20;9.80;99.90
17565;DHT22;62994;52.126;5.596;2023-02-03T03:14:58;9.80;99.90
17565;DHT22;62994;52.126;5.596;2023-02-03T03:17:29;9.80;99.90
17565;DHT22;62994;52.126;5.596;2023-02-03T03:20:01;9.80;99.90
17565;DHT22;62994;52.126;5.596;2023-02-03T03:22:33;9.80;99.90
17565;DHT22;62994;52.126;5.596;2023-02-03T03:25:08;9.80;99.90
17565;DHT22;62994;52.126;5.596;2023-02-03T03:27:45;9.80;99.90
17565;DHT22;62994;52.126;5.596;2023-02-03T03:30:19;9.80;99.90
17565;DHT22;62994;52.126;5.596;2023-02-03T03:32:50;9.80;99.90
17565;DHT22;62994;52.126;5.596;2023-02-03T03:35:17;9.80;99.90
17565;DHT22;62994;52.126;5.596;2023-02-03T03:37:50;9.80;99.90
17565;DHT22;62994;52.126;5.596;2023-02-03T03:40:25;9.80;99.90
17565;DHT22;62994;52.126;5.596;2023-02-03T03:42:57;9.80;99.90
17565;DHT22;62994;52.126;5.596;2023-02-03T03:45:29;9.80;99.90
17565;DHT22;62994;52.126;5.596;2023-02-03T03:48:04;9.80;99.90
17565;DHT22;62994;52.126;5.596;2023-02-03T03:50:38;9.80;99.90
17565;DHT22;62994;52.126;5.596;2023-02-03T03:53:09;9.90;99.90
17565;DHT22;62994;52.126;5.596;2023-02-03T03:55:46;9.80;99.90
17565;DHT22;62994;52.126;5.596;2023-02-03T03:58:21;9.80;99.90
17565;DHT22;62994;52.126;5.596;2023-02-03T04:00:49;9.80;99.90
17565;DHT22;62994;52.126;5.596;2023-02-03T04:03:29;9.80;99.90
17565;DHT22;62994;52.126;5.596;2023-02-03T04:05:57;9.90;99.90
17565;DHT22;62994;52.126;5.596;2023-02-03T04:08:31;9.90;99.90
17565;DHT22;62994;52.126;5.596;2023-02-03T04:11:03;9.90;99.90
17565;DHT22;62994;52.126;5.596;2023-02-03T04:13:32;9.90;99.90
17565;DHT22;62994;52.126;5.596;2023-02-03T04:16:00;9.90;99.90
17565;DHT22;62994;52.126;5.596;2023-02-03T04:18:29;10.00;99.90
17565;DHT22;62994;52.126;5.596;2023-02-03T04:20:56;10.00;99.90
17565;DHT22;62994;52.126;5.596;2023-02-03T04:23:23;10.00;99.90
17565;DHT22;62994;52.126;5.596;2023-02-03T04:25:50;10.00;99.90
17565;DHT22;62994;52.126;5.596;2023-02-03T04:28:18;10.00;99.90
17565;DHT22;62994;52.126;5.596;2023-02-03T04:30:45;9.90;99.90
17565;DHT22;62994;52.126;5.596;2023-02-03T04:33:12;10.00;99.90
17565;DHT22;62994;52.126;5.596;2023-02-03T04:35:40;9.90;99.90
17565;DHT22;62994;52.126;5.596;2023-02-03T04:38:16;10.00;99.90
17565;DHT22;62994;52.126;5.596;2023-02-03T04:40:43;10.00;99.90
17565;DHT22;62994;52.126;5.596;2023-02-03T04:43:11;10.00;99.90
17565;DHT22;62994;52.126;5.596;2023-02-03T04:45:39;10.00;99.90
17565;DHT22;62994;52.126;5.596;2023-02-03T04:48:08;10.00;99.90
17565;DHT22;62994;52.126;5.596;2023-02-03T04:50:35;10.00;99.90
17565;DHT22;62994;52.126;5.596;2023-02-03T04:53:04;10.00;99.90
17565;DHT22;62994;52.126;5.596;2023-02-03T04:55:31;10.00;99.90
17565;DHT22;62994;52.126;5.596;2023-02-03T04:58:03;10.00;99.90
17565;DHT22;62994;52.126;5.596;2023-02-03T05:00:31;10.00;99.90
17565;DHT22;62994;52.126;5.596;2023-02-03T05:02:58;10.00;99.90
17565;DHT22;62994;52.126;5.596;2023-02-03T05:05:29;10.00;99.90
17565;DHT22;62994;52.126;5.596;2023-02-03T05:07:56;10.00;99.90
17565;DHT22;62994;52.126;5.596;2023-02-03T05:10:30;10.00;99.90
17565;DHT22;62994;52.126;5.596;2023-02-03T05:12:57;10.10;99.90
17565;DHT22;62994;52.126;5.596;2023-02-03T05:15:29;10.00;99.90
17565;DHT22;62994;52.126;5.596;2023-02-03T05:17:56;10.00;99.90
17565;DHT22;62994;52.126;5.596;2023-02-03T05:20:28;10.00;99.90
17565;DHT22;62994;52.126;5.596;2023-02-03T05:23:00;10.00;99.90
17565;DHT22;62994;52.126;5.596;2023-02-03T05:25:29;10.00;99.90
17565;DHT22;62994;52.126;5.596;2023-02-03T05:27:56;10.00;99.90
17565;DHT22;62994;52.126;5.596;2023-02-03T05:30:23;10.00;99.90
17565;DHT22;62994;52.126;5.596;2023-02-03T05:32:58;10.10;99.90
17565;DHT22;62994;52.126;5.596;2023-02-03T05:35:25;10.10;99.90
17565;DHT22;62994;52.126;5.596;2023-02-03T05:37:52;10.10;99.90
17565;DHT22;62994;52.126;5.596;2023-02-03T05:40:24;10.10;99.90
17565;DHT22;62994;52.126;5.596;2023-02-03T05:43:12;10.10;99.90
17565;DHT22;62994;52.126;5.596;2023-02-03T05:45:44;10.10;99.90
17565;DHT22;62994;52.126;5.596;2023-02-03T05:48:12;10.20;99.90
17565;DHT22;62994;52.126;5.596;2023-02-03T05:50:39;10.20;99.90
17565;DHT22;62994;52.126;5.596;2023-02-03T05:53:06;10.10;99.90
17565;DHT22;62994;52.126;5.596;2023-02-03T05:55:36;10.10;99.90
17565;DHT22;62994;52.126;5.596;2023-02-03T05:58:06;10.20;99.90
17565;DHT22;62994;52.126;5.596;2023-02-03T06:00:35;10.10;99.90
17565;DHT22;62994;52.126;5.596;2023-02-03T06:03:02;10.10;99.90
17565;DHT22;62994;52.126;5.596;2023-02-03T06:05:31;10.10;99.90
17565;DHT22;62994;52.126;5.596;2023-02-03T06:08:06;10.10;99.90
17565;DHT22;62994;52.126;5.596;2023-02-03T06:10:35;10.10;99.90
17565;DHT22;62994;52.126;5.596;2023-02-03T06:13:08;10.10;99.90
17565;DHT22;62994;52.126;5.596;2023-02-03T06:15:37;10.10;99.90
17565;DHT22;62994;52.126;5.596;2023-02-03T06:18:04;10.10;99.90
17565;DHT22;62994;52.126;5.596;2023-02-03T06:20:32;10.10;99.90
17565;DHT22;62994;52.126;5.596;2023-02-03T06:22:59;10.10;99.90
17565;DHT22;62994;52.126;5.596;2023-02-03T06:25:31;10.10;99.90
17565;DHT22;62994;52.126;5.596;2023-02-03T06:27:58;10.10;99.90
17565;DHT22;62994;52.126;5.596;2023-02-03T06:30:27;10.10;99.90
17565;DHT22;62994;52.126;5.596;2023-02-03T06:32:56;10.20;99.90
17565;DHT22;62994;52.126;5.596;2023-02-03T06:35:25;10.20;99.90
17565;DHT22;62994;52.126;5.596;2023-02-03T06:37:53;10.20;99.90
17565;DHT22;62994;52.126;5.596;2023-02-03T06:40:20;10.20;99.90
17565;DHT22;62994;52.126;5.596;2023-02-03T06:42:49;10.20;99.90
17565;DHT22;62994;52.126;5.596;2023-02-03T06:45:16;10.20;99.90
17565;DHT22;62994;52.126;5.596;2023-02-03T06:47:44;10.10;99.90
17565;DHT22;62994;52.126;5.596;2023-02-03T06:50:14;10.20;99.90
17565;DHT22;62994;52.126;5.596;2023-02-03T06:52:43;10.20;99.90
17565;DHT22;62994;52.126;5.596;2023-02-03T06:55:10;10.20;99.90
17565;DHT22;62994;52.126;5.596;2023-02-03T06:57:44;10.20;99.90
17565;DHT22;62994;52.126;5.596;2023-02-03T07:00:13;10.20;99.90
17565;DHT22;62994;52.126;5.596;2023-02-03T07:02:40;10.20;99.90
17565;DHT22;62994;52.126;5.596;2023-02-03T07:05:10;10.20;99.90
17565;DHT22;62994;52.126;5.596;2023-02-03T07:07:39;10.20;99.90
17565;DHT22;62994;52.126;5.596;2023-02-03T07:10:07;10.10;99.90
17565;DHT22;62994;52.126;5.596;2023-02-03T07:12:34;10.20;99.90
17565;DHT22;62994;52.126;5.596;2023-02-03T07:15:02;10.10;99.90
17565;DHT22;62994;52.126;5.596;2023-02-03T07:17:38;10.20;99.90
17565;DHT22;62994;52.126;5.596;2023-02-03T07:20:20;10.10;99.90
17565;DHT22;62994;52.126;5.596;2023-02-03T07:22:52;10.10;99.90
17565;DHT22;62994;52.126;5.596;2023-02-03T07:25:20;10.10;99.90
17565;DHT22;62994;52.126;5.596;2023-02-03T07:27:47;10.10;99.90
17565;DHT22;62994;52.126;5.596;2023-02-03T07:30:15;10.20;99.90
17565;DHT22;62994;52.126;5.596;2023-02-03T07:32:46;10.10;99.90
17565;DHT22;62994;52.126;5.596;2023-02-03T07:35:16;10.10;99.90
17565;DHT22;62994;52.126;5.596;2023-02-03T07:37:43;10.10;99.90
17565;DHT22;62994;52.126;5.596;2023-02-03T07:40:12;10.10;99.90
17565;DHT22;62994;52.126;5.596;2023-02-03T07:42:43;10.10;99.90
17565;DHT22;62994;52.126;5.596;2023-02-03T07:45:14;10.10;99.90
17565;DHT22;62994;52.126;5.596;2023-02-03T07:47:45;10.10;99.90
17565;DHT22;62994;52.126;5.596;2023-02-03T07:50:12;10.10;99.90
17565;DHT22;62994;52.126;5.596;2023-02-03T07:52:39;10.10;99.90
17565;DHT22;62994;52.126;5.596;2023-02-03T07:55:12;10.10;99.90
17565;DHT22;62994;52.126;5.596;2023-02-03T07:57:40;10.10;99.90
17565;DHT22;62994;52.126;5.596;2023-02-03T08:00:14;10.10;99.90
17565;DHT22;62994;52.126;5.596;2023-02-03T08:02:42;10.20;99.90
17565;DHT22;62994;52.126;5.596;2023-02-03T08:05:11;10.30;99.90
17565;DHT22;62994;52.126;5.596;2023-02-03T08:07:38;10.30;99.90
17565;DHT22;62994;52.126;5.596;2023-02-03T08:10:06;10.30;99.90
17565;DHT22;62994;52.126;5.596;2023-02-03T08:12:35;10.30;99.90
17565;DHT22;62994;52.126;5.596;2023-02-03T08:15:07;10.30;99.90
17565;DHT22;62994;52.126;5.596;2023-02-03T08:17:36;10.30;99.90
17565;DHT22;62994;52.126;5.596;2023-02-03T08:20:11;10.20;99.90
17565;DHT22;62994;52.126;5.596;2023-02-03T08:22:43;10.20;99.90
17565;DHT22;62994;52.126;5.596;2023-02-03T08:25:15;10.30;99.90
17565;DHT22;62994;52.126;5.596;2023-02-03T08:27:48;10.30;99.90
17565;DHT22;62994;52.126;5.596;2023-02-03T08:30:21;10.20;99.90
17565;DHT22;62994;52.126;5.596;2023-02-03T08:32:49;10.20;99.90
17565;DHT22;62994;52.126;5.596;2023-02-03T08:35:21;10.30;99.90
17565;DHT22;62994;52.126;5.596;2023-02-03T08:37:48;10.20;99.90
17565;DHT22;62994;52.126;5.596;2023-02-03T08:40:18;10.30;99.90
17565;DHT22;62994;52.126;5.596;2023-02-03T08:42:47;10.30;99.90
17565;DHT22;62994;52.126;5.596;2023-02-03T08:45:16;10.30;99.90
17565;DHT22;62994;52.126;5.596;2023-02-03T08:47:43;10.30;99.90
17565;DHT22;62994;52.126;5.596;2023-02-03T08:50:12;10.40;99.90
17565;DHT22;62994;52.126;5.596;2023-02-03T08:52:42;10.40;99.90
17565;DHT22;62994;52.126;5.596;2023-02-03T08:55:10;10.30;99.90
17565;DHT22;62994;52.126;5.596;2023-02-03T08:57:37;10.40;99.90
17565;DHT22;62994;52.126;5.596;2023-02-03T09:00:09;10.30;99.90
17565;DHT22;62994;52.126;5.596;2023-02-03T09:02:41;10.40;99.90
17565;DHT22;62994;52.126;5.596;2023-02-03T09:05:11;10.40;99.90
17565;DHT22;62994;52.126;5.596;2023-02-03T09:07:38;10.40;99.90
17565;DHT22;62994;52.126;5.596;2023-02-03T09:10:06;10.40;99.90
17565;DHT22;62994;52.126;5.596;2023-02-03T09:12:33;10.40;99.90
17565;DHT22;62994;52.126;5.596;2023-02-03T09:15:05;10.50;99.90
17565;DHT22;62994;52.126;5.596;2023-02-03T09:17:33;10.50;99.90
17565;DHT22;62994;52.126;5.596;2023-02-03T09:20:12;10.50;99.90
17565;DHT22;62994;52.126;5.596;2023-02-03T09:22:43;10.50;99.90
17565;DHT22;62994;52.126;5.596;2023-02-03T09:25:10;10.50;99.90
17565;DHT22;62994;52.126;5.596;2023-02-03T09:27:43;10.60;99.90
17565;DHT22;62994;52.126;5.596;2023-02-03T09:30:11;10.80;99.90
17565;DHT22;62994;52.126;5.596;2023-02-03T09:32:44;10.70;99.90
17565;DHT22;62994;52.126;5.596;2023-02-03T09:35:14;10.70;99.90
17565;DHT22;62994;52.126;5.596;2023-02-03T09:37:46;10.70;99.90
17565;DHT22;62994;52.126;5.596;2023-02-03T09:40:19;10.70;99.90
17565;DHT22;62994;52.126;5.596;2023-02-03T09:42:58;10.70;99.90
17565;DHT22;62994;52.126;5.596;2023-02-03T09:45:32;10.70;99.90
17565;DHT22;62994;52.126;5.596;2023-02-03T09:48:03;10.70;99.90
17565;DHT22;62994;52.126;5.596;2023-02-03T09:50:33;10.70;99.90
17565;DHT22;62994;52.126;5.596;2023-02-03T09:53:09;10.70;99.90
17565;DHT22;62994;52.126;5.596;2023-02-03T09:55:39;10.70;99.90
17565;DHT22;62994;52.126;5.596;2023-02-03T09:58:10;10.70;99.90
17565;DHT22;62994;52.126;5.596;2023-02-03T10:00:42;10.70;99.90
17565;DHT22;62994;52.126;5.596;2023-02-03T10:03:20;10.70;99.90
17565;DHT22;62994;52.126;5.596;2023-02-03T10:06:09;10.70;99.90
17565;DHT22;62994;52.126;5.596;2023-02-03T10:08:56;10.70;99.90
17565;DHT22;62994;52.126;5.596;2023-02-03T10:11:53;10.70;99.90
17565;DHT22;62994;52.126;5.596;2023-02-03T10:14:34;10.70;99.90
17565;DHT22;62994;52.126;5.596;2023-02-03T10:17:18;10.70;99.90
17565;DHT22;62994;52.126;5.596;2023-02-03T10:19:55;10.70;99.90
17565;DHT22;62994;52.126;5.596;2023-02-03T10:22:29;10.70;99.90
17565;DHT22;62994;52.126;5.596;2023-02-03T10:25:02;10.80;99.90
17565;DHT22;62994;52.126;5.596;2023-02-03T10:27:32;10.80;99.90
17565;DHT22;62994;52.126;5.596;2023-02-03T10:30:09;10.80;99.90
17565;DHT22;62994;52.126;5.596;2023-02-03T10:32:41;10.80;99.90
17565;DHT22;62994;52.126;5.596;2023-02-03T10:35:25;10.90;99.90
17565;DHT22;62994;52.126;5.596;2023-02-03T10:37:56;10.80;99.90
17565;DHT22;62994;52.126;5.596;2023-02-03T10:40:25;10.90;99.90
17565;DHT22;62994;52.126;5.596;2023-02-03T10:42:56;10.90;99.90
17565;DHT22;62994;52.126;5.596;2023-02-03T10:45:43;10.90;99.90
17565;DHT22;62994;52.126;5.596;2023-02-03T10:48:14;10.90;99.90
17565;DHT22;62994;52.126;5.596;2023-02-03T10:50:45;10.90;99.90
17565;DHT22;62994;52.126;5.596;2023-02-03T10:53:26;10.90;99.90
17565;DHT22;62994;52.126;5.596;2023-02-03T10:56:03;11.00;99.90
17565;DHT22;62994;52.126;5.596;2023-02-03T10:58:32;11.00;99.90
17565;DHT22;62994;52.126;5.596;2023-02-03T11:01:06;11.00;99.90
17565;DHT22;62994;52.126;5.596;2023-02-03T11:03:35;11.00;99.90
17565;DHT22;62994;52.126;5.596;2023-02-03T11:06:06;11.20;99.90
17565;DHT22;62994;52.126;5.596;2023-02-03T11:08:35;11.20;99.90
17565;DHT22;62994;52.126;5.596;2023-02-03T11:11:04;11.20;99.90
17565;DHT22;62994;52.126;5.596;2023-02-03T11:13:31;11.20;99.90
17565;DHT22;62994;52.126;5.596;2023-02-03T11:16:00;11.20;99.90
17565;DHT22;62994;52.126;5.596;2023-02-03T11:18:50;11.10;99.90
17565;DHT22;62994;52.126;5.596;2023-02-03T11:21:20;11.10;99.90
17565;DHT22;62994;52.126;5.596;2023-02-03T11:23:52;11.10;99.90
17565;DHT22;62994;52.126;5.596;2023-02-03T11:26:22;11.10;99.90
17565;DHT22;62994;52.126;5.596;2023-02-03T11:28:52;11.10;99.90
17565;DHT22;62994;52.126;5.596;2023-02-03T11:31:23;11.10;99.90
17565;DHT22;62994;52.126;5.596;2023-02-03T11:33:55;11.10;99.90
17565;DHT22;62994;52.126;5.596;2023-02-03T11:36:31;11.10;99.90
17565;DHT22;62994;52.126;5.596;2023-02-03T11:39:18;11.10;99.90
17565;DHT22;62994;52.126;5.596;2023-02-03T11:41:46;11.10;99.90
17565;DHT22;62994;52.126;5.596;2023-02-03T11:44:18;11.10;99.90
17565;DHT22;62994;52.126;5.596;2023-02-03T11:46:48;11.10;99.90
17565;DHT22;62994;52.126;5.596;2023-02-03T11:49:42;11.20;99.90
17565;DHT22;62994;52.126;5.596;2023-02-03T11:52:35;11.10;99.90
17565;DHT22;62994;52.126;5.596;2023-02-03T11:55:09;11.10;99.90
17565;DHT22;62994;52.126;5.596;2023-02-03T11:57:44;11.10;99.90
17565;DHT22;62994;52.126;5.596;2023-02-03T12:00:25;11.10;99.90
17565;DHT22;62994;52.126;5.596;2023-02-03T12:03:24;11.20;99.90
17565;DHT22;62994;52.126;5.596;2023-02-03T12:06:18;11.10;99.90
17565;DHT22;62994;52.126;5.596;2023-02-03T12:12:05;11.10;99.90
17565;DHT22;62994;52.126;5.596;2023-02-03T12:14:48;11.10;99.90
17565;DHT22;62994;52.126;5.596;2023-02-03T12:17:48;11.10;99.90
17565;DHT22;62994;52.126;5.596;2023-02-03T12:20:40;11.00;99.90
17565;DHT22;62994;52.126;5.596;2023-02-03T12:23:27;11.00;99.90
17565;DHT22;62994;52.126;5.596;2023-02-03T12:26:08;10.90;99.90
17565;DHT22;62994;52.126;5.596;2023-02-03T12:28:55;10.90;99.90
17565;DHT22;62994;52.126;5.596;2023-02-03T12:31:29;10.90;99.90
17565;DHT22;62994;52.126;5.596;2023-02-03T12:34:04;10.90;99.90
17565;DHT22;62994;52.126;5.596;2023-02-03T12:36:37;10.80;99.90
17565;DHT22;62994;52.126;5.596;2023-02-03T12:39:10;10.70;99.90
17565;DHT22;62994;52.126;5.596;2023-02-03T12:41:44;10.60;99.90
17565;DHT22;62994;52.126;5.596;2023-02-03T12:44:16;10.60;99.90
17565;DHT22;62994;52.126;5.596;2023-02-03T12:46:48;10.70;99.90
17565;DHT22;62994;52.126;5.596;2023-02-03T12:49:27;10.60;99.90
17565;DHT22;62994;52.126;5.596;2023-02-03T12:51:59;10.60;99.90
17565;DHT22;62994;52.126;5.596;2023-02-03T12:54:36;10.60;99.90
17565;DHT22;62994;52.126;5.596;2023-02-03T12:57:18;10.60;99.90
17565;DHT22;62994;52.126;5.596;2023-02-03T13:02:50;10.60;99.90
17565;DHT22;62994;52.126;5.596;2023-02-03T13:05:22;10.60;99.90
17565;DHT22;62994;52.126;5.596;2023-02-03T13:07:54;10.60;99.90
17565;DHT22;62994;52.126;5.596;2023-02-03T13:10:28;10.60;99.90
17565;DHT22;62994;52.126;5.596;2023-02-03T13:13:01;10.60;99.90
17565;DHT22;62994;52.126;5.596;2023-02-03T13:15:31;10.70;99.90
17565;DHT22;62994;52.126;5.596;2023-02-03T13:18:04;10.60;99.90
17565;DHT22;62994;52.126;5.596;2023-02-03T13:20:35;10.60;99.90
17565;DHT22;62994;52.126;5.596;2023-02-03T13:23:12;10.70;99.90
17565;DHT22;62994;52.126;5.596;2023-02-03T13:25:52;10.70;99.90
17565;DHT22;62994;52.126;5.596;2023-02-03T13:28:37;10.70;99.90
17565;DHT22;62994;52.126;5.596;2023-02-03T13:31:21;10.70;99.90
17565;DHT22;62994;52.126;5.596;2023-02-03T13:34:17;10.70;99.90
17565;DHT22;62994;52.126;5.596;2023-02-03T13:37:30;10.70;99.90
17565;DHT22;62994;52.126;5.596;2023-02-03T13:43:01;10.70;99.90
17565;DHT22;62994;52.126;5.596;2023-02-03T13:45:33;10.70;99.90
17565;DHT22;62994;52.126;5.596;2023-02-03T13:48:13;10.60;99.90
17565;DHT22;62994;52.126;5.596;2023-02-03T13:50:42;10.60;99.90
17565;DHT22;62994;52.126;5.596;2023-02-03T13:53:16;10.70;99.90
17565;DHT22;62994;52.126;5.596;2023-02-03T13:55:51;10.60;99.90
17565;DHT22;62994;52.126;5.596;2023-02-03T13:58:31;10.60;99.90
17565;DHT22;62994;52.126;5.596;2023-02-03T14:01:06;10.60;99.90
17565;DHT22;62994;52.126;5.596;2023-02-03T14:03:44;10.60;99.90
17565;DHT22;62994;52.126;5.596;2023-02-03T14:09:41;10.80;99.90
17565;DHT22;62994;52.126;5.596;2023-02-03T14:12:31;10.80;99.90
17565;DHT22;62994;52.126;5.596;2023-02-03T14:18:34;10.70;99.90
17565;DHT22;62994;52.126;5.596;2023-02-03T14:21:17;10.60;99.90
17565;DHT22;62994;52.126;5.596;2023-02-03T14:23:49;10.60;99.90
17565;DHT22;62994;52.126;5.596;2023-02-03T14:26:27;10.60;99.90
17565;DHT22;62994;52.126;5.596;2023-02-03T14:28:56;10.60;99.90
17565;DHT22;62994;52.126;5.596;2023-02-03T14:31:24;10.60;99.90
17565;DHT22;62994;52.126;5.596;2023-02-03T14:34:11;10.60;99.90
17565;DHT22;62994;52.126;5.596;2023-02-03T14:36:49;10.60;99.90
17565;DHT22;62994;52.126;5.596;2023-02-03T14:40:00;10.60;99.90
17565;DHT22;62994;52.126;5.596;2023-02-03T14:46:07;10.60;99.90
17565;DHT22;62994;52.126;5.596;2023-02-03T14:48:48;10.60;99.90
17565;DHT22;62994;52.126;5.596;2023-02-03T14:51:32;10.60;99.90
17565;DHT22;62994;52.126;5.596;2023-02-03T14:54:20;10.60;99.90
17565;DHT22;62994;52.126;5.596;2023-02-03T14:56:58;10.60;99.90
17565;DHT22;62994;52.126;5.596;2023-02-03T14:59:47;10.60;99.90
17565;DHT22;62994;52.126;5.596;2023-02-03T15:02:18;10.50;99.90
17565;DHT22;62994;52.126;5.596;2023-02-03T15:04:52;10.60;99.90
17565;DHT22;62994;52.126;5.596;2023-02-03T15:07:42;10.50;99.90
17565;DHT22;62994;52.126;5.596;2023-02-03T15:10:19;10.50;99.90
17565;DHT22;62994;52.126;5.596;2023-02-03T15:12:48;10.50;99.90
17565;DHT22;62994;52.126;5.596;2023-02-03T15:15:20;10.50;99.90
17565;DHT22;62994;52.126;5.596;2023-02-03T15:17:49;10.50;99.90
17565;DHT22;62994;52.126;5.596;2023-02-03T15:20:26;10.50;99.90
17565;DHT22;62994;52.126;5.596;2023-02-03T15:22:56;10.50;99.90
17565;DHT22;62994;52.126;5.596;2023-02-03T15:25:24;10.60;99.90
17565;DHT22;62994;52.126;5.596;2023-02-03T15:27:53;10.60;99.90
17565;DHT22;62994;52.126;5.596;2023-02-03T15:30:24;10.60;99.90
17565;DHT22;62994;52.126;5.596;2023-02-03T15:32:59;10.60;99.90
17565;DHT22;62994;52.126;5.596;2023-02-03T15:35:30;10.60;99.90
17565;DHT22;62994;52.126;5.596;2023-02-03T15:38:02;10.60;99.90
17565;DHT22;62994;52.126;5.596;2023-02-03T15:40:35;10.60;99.90
17565;DHT22;62994;52.126;5.596;2023-02-03T15:43:08;10.60;99.90
17565;DHT22;62994;52.126;5.596;2023-02-03T15:45:46;10.60;99.90
17565;DHT22;62994;52.126;5.596;2023-02-03T15:48:20;10.60;99.90
17565;DHT22;62994;52.126;5.596;2023-02-03T15:50:52;10.70;99.90
17565;DHT22;62994;52.126;5.596;2023-02-03T15:53:26;10.70;99.90
17565;DHT22;62994;52.126;5.596;2023-02-03T15:55:56;10.70;99.90
17565;DHT22;62994;52.126;5.596;2023-02-03T15:58:26;10.70;99.90
17565;DHT22;62994;52.126;5.596;2023-02-03T16:00:56;10.60;99.90
17565;DHT22;62994;52.126;5.596;2023-02-03T16:03:31;10.70;99.90
17565;DHT22;62994;52.126;5.596;2023-02-03T16:06:06;10.60;99.90
17565;DHT22;62994;52.126;5.596;2023-02-03T16:08:38;10.60;99.90
17565;DHT22;62994;52.126;5.596;2023-02-03T16:11:26;10.60;99.90
17565;DHT22;62994;52.126;5.596;2023-02-03T16:13:54;10.60;99.90
17565;DHT22;62994;52.126;5.596;2023-02-03T16:16:23;10.60;99.90
17565;DHT22;62994;52.126;5.596;2023-02-03T16:18:53;10.60;99.90
17565;DHT22;62994;52.126;5.596;2023-02-03T16:21:32;10.60;99.90
17565;DHT22;62994;52.126;5.596;2023-02-03T16:26:47;10.60;99.90
17565;DHT22;62994;52.126;5.596;2023-02-03T16:29:14;10.50;99.90
17565;DHT22;62994;52.126;5.596;2023-02-03T16:31:59;10.50;99.90
17565;DHT22;62994;52.126;5.596;2023-02-03T16:34:44;10.50;99.90
17565;DHT22;62994;52.126;5.596;2023-02-03T16:37:30;10.50;99.90